Time;durP1;ratioP1;P1;durP2;ratioP2;P2;SDS_P1;SDS_P2;PMS_P1;PMS_P2;Temp;Humidity;BMP_temperature;BMP_pressure;BME280_temperature;BME280_humidity;BME280_pressure;Samples;Min_cycle;Max_cycle;Signal;HPM_P1;HPM_P2
2023/11/28 00:00:57;;;;;;;0.40;0.40;;;5.20;92.40;;;;;;6204367;28;20053;-77
2023/11/28 00:03:58;;;;;;;2.30;0.85;;;5.20;92.40;;;;;;6225592;28;20054;-78
2023/11/28 00:07:00;;;;;;;0.85;0.47;;;5.20;92.40;;;;;;6228698;28;20045;-78
2023/11/28 00:10:03;;;;;;;0.75;0.75;;;5.30;92.40;;;;;;6219823;28;20049;-78
2023/11/28 00:13:06;;;;;;;0.82;0.70;;;5.30;92.50;;;;;;6207553;28;20050;-79
2023/11/28 00:16:09;;;;;;;1.30;0.60;;;5.40;92.50;;;;;;6214042;28;20086;-80
2023/11/28 00:19:10;;;;;;;1.08;0.85;;;5.40;92.50;;;;;;6203992;28;20439;-78
2023/11/28 00:22:12;;;;;;;0.60;0.60;;;5.50;92.50;;;;;;6200392;28;20042;-79
2023/11/28 00:25:18;;;;;;;1.38;0.82;;;5.50;92.40;;;;;;6205404;28;20741;-79
2023/11/28 00:28:20;;;;;;;0.73;0.70;;;5.50;92.30;;;;;;6209358;28;20084;-78
2023/11/28 00:31:23;;;;;;;0.88;0.60;;;5.60;92.40;;;;;;6203308;28;20523;-79
2023/11/28 00:34:25;;;;;;;1.38;0.50;;;5.60;92.40;;;;;;6220415;28;20129;-78
2023/11/28 00:37:26;;;;;;;0.60;0.60;;;5.70;92.30;;;;;;6204177;28;20144;-78
2023/11/28 00:40:31;;;;;;;0.60;0.60;;;5.70;92.30;;;;;;6203680;28;20053;-78
2023/11/28 00:43:34;;;;;;;1.05;0.63;;;5.70;92.30;;;;;;6204640;28;20054;-79
2023/11/28 00:46:40;;;;;;;0.63;0.63;;;5.70;92.30;;;;;;6203098;28;20466;-79
2023/11/28 00:49:43;;;;;;;1.52;0.52;;;5.70;92.30;;;;;;6207624;28;20043;-77
2023/11/28 00:52:44;;;;;;;0.70;0.70;;;5.70;92.30;;;;;;6225332;28;20049;-78
2023/11/28 00:55:47;;;;;;;1.50;1.00;;;5.80;92.30;;;;;;6228320;28;20525;-79
2023/11/28 00:58:49;;;;;;;0.60;0.60;;;5.80;92.30;;;;;;6227424;28;20128;-78
2023/11/28 01:01:52;;;;;;;0.88;0.55;;;5.80;92.40;;;;;;6209297;28;20436;-79
2023/11/28 01:04:54;;;;;;;2.53;0.75;;;5.80;92.40;;;;;;6203318;28;20074;-79
2023/11/28 01:07:57;;;;;;;3.65;1.42;;;5.80;92.30;;;;;;6204133;28;20056;-78
2023/11/28 01:10:58;;;;;;;0.60;0.60;;;5.80;92.40;;;;;;6202984;28;20125;-78
2023/11/28 01:14:00;;;;;;;0.88;0.35;;;5.90;92.40;;;;;;6203570;28;20042;-78
2023/11/28 01:17:06;;;;;;;0.88;0.52;;;5.90;92.40;;;;;;6203703;28;20042;-78
2023/11/28 01:20:08;;;;;;;0.60;0.47;;;5.90;92.40;;;;;;6202392;28;20398;-79
2023/11/28 01:23:10;;;;;;;1.27;0.57;;;5.90;92.70;;;;;;6203353;28;20526;-78
2023/11/28 01:26:13;;;;;;;2.22;0.80;;;6.00;92.40;;;;;;6224577;28;20053;-78
2023/11/28 01:29:15;;;;;;;0.60;0.60;;;6.00;92.50;;;;;;6227100;28;20129;-78
2023/11/28 01:32:18;;;;;;;0.68;0.68;;;6.00;92.50;;;;;;6226706;28;20046;-77
2023/11/28 01:35:20;;;;;;;0.73;0.57;;;6.00;92.50;;;;;;6226526;28;20569;-77
2023/11/28 01:38:21;;;;;;;2.53;0.60;;;6.00;92.50;;;;;;6226958;28;20053;-77
2023/11/28 01:41:24;;;;;;;1.52;0.52;;;6.00;92.40;;;;;;6215744;28;20057;-78
2023/11/28 01:44:25;;;;;;;0.85;0.60;;;6.00;92.50;;;;;;6200632;28;20054;-78
2023/11/28 01:47:28;;;;;;;0.75;0.75;;;6.00;92.50;;;;;;6198847;28;20057;-77
2023/11/28 01:50:30;;;;;;;0.85;0.60;;;6.00;92.50;;;;;;6197569;28;20046;-76
2023/11/28 01:53:33;;;;;;;0.80;0.70;;;6.00;92.50;;;;;;6197794;28;20053;-76
2023/11/28 01:56:36;;;;;;;0.50;0.50;;;6.00;92.50;;;;;;6224127;28;20054;-77
2023/11/28 01:59:41;;;;;;;1.23;0.70;;;6.00;92.60;;;;;;6223691;28;20053;-77
2023/11/28 02:02:44;;;;;;;0.85;0.60;;;6.00;92.60;;;;;;6226098;28;20046;-77
2023/11/28 02:05:46;;;;;;;0.55;0.52;;;6.00;92.60;;;;;;6221894;28;20458;-77
2023/11/28 02:08:48;;;;;;;0.95;0.70;;;6.00;92.60;;;;;;6221484;28;20645;-77
2023/11/28 02:11:50;;;;;;;1.20;0.70;;;6.00;92.70;;;;;;6221960;28;20425;-77
2023/11/28 02:14:51;;;;;;;0.50;0.50;;;6.00;92.70;;;;;;6220969;28;20423;-77
2023/11/28 02:17:54;;;;;;;1.25;0.45;;;6.00;92.70;;;;;;6220991;28;20423;-76
2023/11/28 02:20:56;;;;;;;0.75;0.52;;;6.00;92.80;;;;;;6221071;28;20054;-77
2023/11/28 02:23:58;;;;;;;0.63;0.63;;;6.00;92.80;;;;;;6227006;28;20045;-79
2023/11/28 02:27:01;;;;;;;2.30;0.90;;;6.00;92.80;;;;;;6227794;28;20041;-79
2023/11/28 02:30:03;;;;;;;0.90;0.57;;;6.00;92.80;;;;;;6213030;28;20538;-78
2023/11/28 02:33:05;;;;;;;1.83;1.08;;;6.00;92.90;;;;;;6212879;28;20052;-77
2023/11/28 02:36:08;;;;;;;1.65;0.93;;;6.00;92.90;;;;;;6203719;28;20061;-78
2023/11/28 02:39:09;;;;;;;1.13;0.88;;;6.00;93.00;;;;;;6198469;28;20047;-77
2023/11/28 02:42:12;;;;;;;3.28;0.73;;;6.00;93.00;;;;;;6199003;28;20053;-76
2023/11/28 02:45:14;;;;;;;1.58;0.63;;;6.00;93.00;;;;;;6203223;28;20042;-77
2023/11/28 02:48:16;;;;;;;0.73;0.70;;;6.00;93.10;;;;;;6221879;28;20046;-77
2023/11/28 02:51:20;;;;;;;2.25;0.70;;;6.00;93.50;;;;;;6216161;28;20047;-76
2023/11/28 02:54:21;;;;;;;1.00;0.77;;;6.00;93.20;;;;;;6210738;28;20073;-77
2023/11/28 02:57:24;;;;;;;1.48;0.98;;;6.10;93.30;;;;;;6206689;28;20569;-75
2023/11/28 03:03:42;;;;;;;0.95;0.80;;;6.10;93.40;;;;;;6204043;28;20613;-76
2023/11/28 03:06:44;;;;;;;0.98;0.95;;;6.10;93.40;;;;;;6213062;28;20068;-76
2023/11/28 03:09:45;;;;;;;2.58;1.10;;;6.10;93.40;;;;;;6211031;28;20046;-76
2023/11/28 03:12:48;;;;;;;2.38;1.05;;;6.10;93.50;;;;;;6213514;28;20050;-75
2023/11/28 03:15:50;;;;;;;0.77;0.77;;;6.20;93.50;;;;;;6204693;28;20058;-77
2023/11/28 03:18:52;;;;;;;1.60;1.25;;;6.20;93.50;;;;;;6204137;28;20038;-76
2023/11/28 03:21:55;;;;;;;2.65;2.00;;;6.20;93.60;;;;;;6218691;28;20042;-76
2023/11/28 03:24:56;;;;;;;1.73;1.02;;;6.20;93.60;;;;;;6198899;28;20169;-76
2023/11/28 03:27:59;;;;;;;1.65;1.35;;;6.20;93.60;;;;;;6212799;28;20053;-76
2023/11/28 03:31:01;;;;;;;1.77;1.35;;;6.20;93.60;;;;;;6219674;28;20046;-75
2023/11/28 03:34:03;;;;;;;1.60;1.40;;;6.20;93.70;;;;;;6209809;28;20426;-76
2023/11/28 03:37:05;;;;;;;2.63;1.70;;;6.20;93.70;;;;;;6216449;28;20054;-76
2023/11/28 03:40:08;;;;;;;1.92;1.38;;;6.30;93.80;;;;;;6199821;28;20046;-76
2023/11/28 03:43:11;;;;;;;2.50;1.80;;;6.30;93.80;;;;;;6212569;28;20050;-77
2023/11/28 03:46:13;;;;;;;1.73;1.13;;;6.30;93.80;;;;;;6216294;28;20049;-76
2023/11/28 03:49:15;;;;;;;1.65;1.33;;;6.30;93.80;;;;;;6207491;28;20046;-77
2023/11/28 03:52:16;;;;;;;1.58;1.35;;;6.30;93.80;;;;;;6212141;28;20054;-76
2023/11/28 03:55:18;;;;;;;3.30;1.30;;;6.40;93.90;;;;;;6213000;28;20072;-77
2023/11/28 03:58:23;;;;;;;2.90;1.55;;;6.40;93.90;;;;;;6207681;28;20431;-77
2023/11/28 04:01:24;;;;;;;1.42;1.33;;;6.40;93.90;;;;;;6216164;28;20053;-78
2023/11/28 04:04:26;;;;;;;1.65;1.40;;;6.40;93.90;;;;;;6218162;28;20061;-77
2023/11/28 04:07:28;;;;;;;1.73;1.52;;;6.40;93.90;;;;;;6214313;28;20161;-77
2023/11/28 04:10:30;;;;;;;2.20;1.65;;;6.40;93.90;;;;;;6207564;28;20050;-78
2023/11/28 04:13:33;;;;;;;1.88;1.50;;;6.40;94.00;;;;;;6201038;28;20046;-77
2023/11/28 04:16:35;;;;;;;5.18;2.70;;;6.40;93.90;;;;;;6214557;28;20058;-77
2023/11/28 04:19:36;;;;;;;2.78;2.20;;;6.40;94.00;;;;;;6208345;28;20042;-78
2023/11/28 04:22:38;;;;;;;3.67;2.00;;;6.40;94.00;;;;;;6215508;28;20042;-77
2023/11/28 04:25:40;;;;;;;5.25;3.72;;;6.30;94.00;;;;;;6215323;28;20046;-78
2023/11/28 04:28:43;;;;;;;3.08;2.33;;;6.40;94.00;;;;;;6215181;28;20042;-79
2023/11/28 04:31:44;;;;;;;3.03;2.63;;;6.30;94.00;;;;;;6207379;28;20496;-77
2023/11/28 04:34:46;;;;;;;3.30;3.00;;;6.30;94.00;;;;;;6198952;28;20515;-78
2023/11/28 04:37:48;;;;;;;4.32;3.17;;;6.30;94.00;;;;;;6206987;28;20046;-78
2023/11/28 04:40:50;;;;;;;3.97;3.13;;;6.30;94.00;;;;;;6198565;28;20042;-79
2023/11/28 04:43:53;;;;;;;3.33;2.88;;;6.30;94.10;;;;;;6216844;28;20053;-78
2023/11/28 04:46:55;;;;;;;4.03;3.55;;;6.30;94.10;;;;;;6223159;28;20422;-78
2023/11/28 04:49:57;;;;;;;5.45;4.30;;;6.30;94.10;;;;;;6206868;28;20043;-77
2023/11/28 04:52:59;;;;;;;4.95;3.45;;;6.20;94.10;;;;;;6222184;28;20124;-79
2023/11/28 04:56:00;;;;;;;3.40;2.88;;;6.20;94.10;;;;;;6207878;28;20050;-78
2023/11/28 04:59:03;;;;;;;6.38;3.30;;;6.20;94.10;;;;;;6208924;28;20042;-78
2023/11/28 05:02:05;;;;;;;3.22;2.83;;;6.20;94.10;;;;;;6215967;28;20076;-78
2023/11/28 05:05:07;;;;;;;3.67;3.22;;;6.20;94.10;;;;;;6212819;28;20042;-78
2023/11/28 05:08:09;;;;;;;3.45;2.65;;;6.20;94.10;;;;;;6219182;28;20132;-77
2023/11/28 05:11:11;;;;;;;3.40;3.10;;;6.20;94.10;;;;;;6212185;28;20050;-78
2023/11/28 05:14:14;;;;;;;2.65;2.30;;;6.10;94.00;;;;;;6207927;28;20046;-78
2023/11/28 05:17:16;;;;;;;3.63;3.00;;;6.10;94.10;;;;;;6206954;28;20043;-78
2023/11/28 05:20:18;;;;;;;3.88;3.28;;;6.10;94.10;;;;;;6211089;28;20049;-79
2023/11/28 05:23:20;;;;;;;2.95;2.08;;;6.10;94.10;;;;;;6202630;28;20046;-78
2023/11/28 05:26:21;;;;;;;3.55;2.70;;;6.00;94.00;;;;;;6211981;28;20045;-78
2023/11/28 05:29:25;;;;;;;6.28;3.78;;;6.00;94.00;;;;;;6217284;28;20042;-78
2023/11/28 05:32:27;;;;;;;4.28;3.15;;;6.00;94.10;;;;;;6204360;28;20484;-77
2023/11/28 05:35:28;;;;;;;4.03;2.00;;;5.90;94.00;;;;;;6204517;28;20472;-79
2023/11/28 05:38:30;;;;;;;2.67;2.28;;;5.90;94.10;;;;;;6207865;28;20069;-79
2023/11/28 05:41:32;;;;;;;2.85;2.00;;;5.90;94.10;;;;;;6219653;28;20037;-78
2023/11/28 05:44:35;;;;;;;2.10;1.90;;;5.90;94.00;;;;;;6203861;28;20046;-79
2023/11/28 05:47:38;;;;;;;1.77;1.63;;;5.80;94.00;;;;;;6216327;28;20151;-80
2023/11/28 05:50:40;;;;;;;2.85;1.25;;;5.80;94.00;;;;;;6199054;28;20045;-80
2023/11/28 05:53:41;;;;;;;1.52;1.42;;;5.80;94.00;;;;;;6222566;28;20043;-79
2023/11/28 05:56:43;;;;;;;2.00;1.77;;;5.80;94.10;;;;;;6223741;28;20046;-79
2023/11/28 05:59:46;;;;;;;1.92;1.48;;;5.80;94.00;;;;;;6215516;28;20423;-79
2023/11/28 06:02:48;;;;;;;1.45;1.30;;;5.80;94.00;;;;;;6215694;28;20042;-79
2023/11/28 06:05:50;;;;;;;1.95;1.42;;;5.70;94.00;;;;;;6206841;28;20048;-78
2023/11/28 06:08:51;;;;;;;1.65;1.52;;;5.70;93.90;;;;;;6207479;28;20049;-78
2023/11/28 06:11:53;;;;;;;1.13;1.02;;;5.70;93.90;;;;;;6215588;28;20060;-79
2023/11/28 06:14:56;;;;;;;1.17;1.00;;;5.70;93.90;;;;;;6207461;28;20053;-80
2023/11/28 06:17:58;;;;;;;0.93;0.80;;;5.60;93.90;;;;;;6207102;28;20046;-79
2023/11/28 06:21:00;;;;;;;1.08;0.80;;;5.60;93.80;;;;;;6204773;28;20046;-78
2023/11/28 06:24:01;;;;;;;0.38;0.38;;;5.50;93.70;;;;;;6205102;28;20372;-76
2023/11/28 06:27:03;;;;;;;1.23;0.50;;;5.50;93.60;;;;;;6204518;28;20427;-76
2023/11/28 06:30:08;;;;;;;0.50;0.43;;;5.40;93.60;;;;;;6206370;28;20046;-78
2023/11/28 06:33:10;;;;;;;0.40;0.32;;;5.20;93.50;;;;;;6204659;28;20046;-76
2023/11/28 06:36:12;;;;;;;0.30;0.30;;;5.10;93.60;;;;;;6213316;28;20087;-77
2023/11/28 06:39:14;;;;;;;0.50;0.50;;;5.00;93.40;;;;;;6212176;28;20042;-77
2023/11/28 06:42:16;;;;;;;0.80;0.35;;;5.00;93.50;;;;;;6209358;28;20399;-77
2023/11/28 06:45:20;;;;;;;0.70;0.50;;;4.90;93.50;;;;;;6205694;28;20125;-77
2023/11/28 06:48:21;;;;;;;0.70;0.40;;;4.90;93.40;;;;;;6212232;28;20050;-78
2023/11/28 06:51:24;;;;;;;0.70;0.60;;;4.80;93.70;;;;;;6207888;28;20046;-77
2023/11/28 06:54:26;;;;;;;0.20;0.20;;;4.80;93.40;;;;;;6209347;28;20148;-78
2023/11/28 06:57:28;;;;;;;0.30;0.30;;;4.70;93.30;;;;;;6207214;28;20518;-77
2023/11/28 07:00:31;;;;;;;0.40;0.40;;;4.70;93.30;;;;;;6209014;28;20510;-77
2023/11/28 07:03:34;;;;;;;0.52;0.43;;;4.70;93.30;;;;;;6199371;28;20077;-78
2023/11/28 07:06:36;;;;;;;0.60;0.40;;;4.70;93.30;;;;;;6209588;28;20046;-78
2023/11/28 07:09:40;;;;;;;0.50;0.50;;;4.70;93.40;;;;;;6213717;28;20061;-78
2023/11/28 07:12:42;;;;;;;0.77;0.77;;;4.70;93.30;;;;;;6196425;28;20137;-78
2023/11/28 07:15:45;;;;;;;0.50;0.50;;;4.70;93.30;;;;;;6211673;28;20053;-78
2023/11/28 07:18:46;;;;;;;0.40;0.40;;;4.70;93.30;;;;;;6197832;28;20042;-78
2023/11/28 07:21:48;;;;;;;1.30;0.77;;;4.70;93.20;;;;;;6215684;28;20041;-78
2023/11/28 07:24:50;;;;;;;1.13;0.60;;;4.70;93.30;;;;;;6218033;28;20058;-77
2023/11/28 07:27:51;;;;;;;1.15;0.77;;;4.70;93.20;;;;;;6217066;28;20057;-78
2023/11/28 07:30:54;;;;;;;0.77;0.77;;;4.70;93.30;;;;;;6216467;28;20049;-78
2023/11/28 07:33:56;;;;;;;0.88;0.75;;;4.70;93.20;;;;;;6208153;28;20043;-77
2023/11/28 07:36:58;;;;;;;2.72;1.00;;;4.70;93.20;;;;;;6199895;28;20042;-77
2023/11/28 07:39:59;;;;;;;1.48;1.10;;;4.60;93.40;;;;;;6201651;28;20055;-76
2023/11/28 07:43:01;;;;;;;2.50;1.23;;;4.70;93.10;;;;;;6209598;28;20046;-77
2023/11/28 07:46:05;;;;;;;1.33;0.60;;;4.70;93.10;;;;;;6208585;28;20057;-76
2023/11/28 07:49:07;;;;;;;1.55;0.70;;;4.70;93.10;;;;;;6209610;28;20046;-78
2023/11/28 07:52:09;;;;;;;3.13;0.73;;;4.60;93.10;;;;;;6214677;28;20056;-79
2023/11/28 07:55:11;;;;;;;1.17;0.88;;;4.60;93.10;;;;;;6210131;28;20053;-78
2023/11/28 07:58:13;;;;;;;1.63;0.80;;;4.60;93.00;;;;;;6224076;28;20046;-78
2023/11/28 08:01:17;;;;;;;2.00;1.33;;;4.70;93.10;;;;;;6191393;28;20202;-78
2023/11/28 08:04:18;;;;;;;1.35;1.25;;;4.70;93.00;;;;;;6225730;28;20080;-80
2023/11/28 08:07:20;;;;;;;6.68;1.70;;;4.70;93.00;;;;;;6231597;28;20128;-76
2023/11/28 08:10:22;;;;;;;4.38;2.42;;;4.60;93.00;;;;;;6211021;28;20049;-77
2023/11/28 08:13:24;;;;;;;2.75;1.67;;;4.60;93.00;;;;;;6217016;28;20050;-79
2023/11/28 08:16:27;;;;;;;2.95;1.98;;;4.60;92.90;;;;;;6215749;28;20050;-78
2023/11/28 08:19:28;;;;;;;4.60;1.20;;;4.60;92.90;;;;;;6216105;28;20496;-79
2023/11/28 08:22:30;;;;;;;0.88;0.80;;;4.60;92.90;;;;;;6214985;28;20129;-78
2023/11/28 08:25:32;;;;;;;3.40;1.30;;;4.60;92.90;;;;;;6215103;28;20056;-78
2023/11/28 08:28:35;;;;;;;0.82;0.60;;;4.60;92.90;;;;;;6213213;28;20053;-78
2023/11/28 08:31:38;;;;;;;0.40;0.40;;;4.60;92.90;;;;;;6227149;28;20038;-77
2023/11/28 08:34:40;;;;;;;1.00;0.50;;;4.60;92.90;;;;;;6213644;28;20045;-78
2023/11/28 08:37:41;;;;;;;1.17;0.90;;;4.60;92.90;;;;;;6228517;28;20531;-78
2023/11/28 08:40:43;;;;;;;0.52;0.52;;;4.60;92.90;;;;;;6229951;28;20444;-79
2023/11/28 08:43:45;;;;;;;0.90;0.68;;;4.60;92.90;;;;;;6236913;28;20053;-79
2023/11/28 08:46:48;;;;;;;1.10;0.80;;;4.60;92.90;;;;;;6230947;28;20054;-79
2023/11/28 08:49:50;;;;;;;1.77;0.90;;;4.60;92.90;;;;;;6232707;28;20129;-78
2023/11/28 08:52:52;;;;;;;0.60;0.60;;;4.60;92.80;;;;;;6238587;28;20046;-77
2023/11/28 08:55:53;;;;;;;1.17;0.45;;;4.60;92.80;;;;;;6227746;28;20046;-79
2023/11/28 08:58:55;;;;;;;1.58;1.00;;;4.60;92.80;;;;;;6218128;28;20101;-79
2023/11/28 09:01:58;;;;;;;1.88;1.45;;;4.60;92.90;;;;;;6219553;28;20050;-77
2023/11/28 09:05:00;;;;;;;2.28;1.63;;;4.60;92.80;;;;;;6211331;28;20111;-79
2023/11/28 09:08:02;;;;;;;1.23;0.77;;;4.70;92.80;;;;;;6216483;28;20068;-79
2023/11/28 09:11:03;;;;;;;1.35;1.25;;;4.70;92.80;;;;;;6214521;28;20159;-79
2023/11/28 09:14:05;;;;;;;0.65;0.52;;;4.70;92.80;;;;;;6215771;28;20508;-78
2023/11/28 09:17:08;;;;;;;0.77;0.63;;;4.70;92.80;;;;;;6214531;28;20058;-79
2023/11/28 09:20:11;;;;;;;0.47;0.47;;;4.70;92.80;;;;;;6218058;28;20057;-80
2023/11/28 09:23:12;;;;;;;2.78;0.60;;;4.70;93.20;;;;;;6218078;28;20450;-81
2023/11/28 09:26:14;;;;;;;0.82;0.60;;;4.70;92.90;;;;;;6227425;28;20053;-79
2023/11/28 09:29:19;;;;;;;0.77;0.65;;;4.70;92.90;;;;;;6227424;28;20045;-79
2023/11/28 09:32:22;;;;;;;4.47;0.82;;;4.80;92.90;;;;;;6208160;28;20046;-79
2023/11/28 09:35:24;;;;;;;0.85;0.70;;;4.80;92.90;;;;;;6213512;28;20042;-80
2023/11/28 09:38:25;;;;;;;0.45;0.45;;;4.80;92.80;;;;;;6224404;28;20046;-79
2023/11/28 09:41:28;;;;;;;0.70;0.70;;;4.90;92.80;;;;;;6222225;28;20152;-78
2023/11/28 09:44:35;;;;;;;0.90;0.90;;;4.90;92.80;;;;;;6227058;28;20069;-79
2023/11/28 09:47:40;;;;;;;1.85;1.15;;;4.90;92.80;;;;;;6223848;28;20051;-80
2023/11/28 09:50:43;;;;;;;0.82;0.77;;;4.90;92.80;;;;;;6214973;28;20040;-78
2023/11/28 09:53:48;;;;;;;0.60;0.60;;;4.80;92.80;;;;;;6213576;28;20196;-80
2023/11/28 09:56:52;;;;;;;1.08;0.93;;;4.80;92.70;;;;;;6213169;28;20112;-79
2023/11/28 09:59:54;;;;;;;1.02;0.60;;;4.80;92.70;;;;;;6214282;28;20056;-79
2023/11/28 10:02:58;;;;;;;0.95;0.90;;;4.80;92.70;;;;;;6214709;28;20045;-80
2023/11/28 10:06:00;;;;;;;0.80;0.80;;;4.70;92.70;;;;;;6214745;28;20471;-80
2023/11/28 10:09:02;;;;;;;2.90;1.05;;;4.70;92.70;;;;;;6212368;28;20065;-79
2023/11/28 10:12:06;;;;;;;2.13;1.25;;;4.70;92.60;;;;;;6213052;28;20050;-77
2023/11/28 10:15:10;;;;;;;1.73;1.20;;;4.70;92.60;;;;;;6209382;28;20058;-77
2023/11/28 10:18:13;;;;;;;1.23;1.13;;;4.70;92.60;;;;;;6220200;28;20105;-77
2023/11/28 10:21:16;;;;;;;2.60;1.08;;;4.60;92.60;;;;;;6219533;28;20426;-79
2023/11/28 10:24:20;;;;;;;0.90;0.80;;;4.60;92.60;;;;;;6210961;28;20499;-78
2023/11/28 10:27:22;;;;;;;4.68;1.05;;;4.60;92.50;;;;;;6210151;28;20050;-77
2023/11/28 10:30:23;;;;;;;1.45;1.35;;;4.50;92.50;;;;;;6211571;28;20107;-77
2023/11/28 10:33:26;;;;;;;1.13;1.08;;;4.50;92.50;;;;;;6208950;28;20069;-76
2023/11/28 10:36:28;;;;;;;1.77;1.63;;;4.50;92.40;;;;;;6210252;28;20109;-76
2023/11/28 10:39:30;;;;;;;1.23;1.13;;;4.50;92.50;;;;;;6211590;28;20046;-76
2023/11/28 10:42:32;;;;;;;1.50;1.40;;;4.50;92.50;;;;;;6211131;28;20046;-77
2023/11/28 10:45:34;;;;;;;1.52;1.42;;;4.50;92.50;;;;;;6202921;28;20053;-76
2023/11/28 10:48:38;;;;;;;1.55;1.45;;;4.50;92.50;;;;;;6209551;28;20050;-76
2023/11/28 10:51:40;;;;;;;1.35;1.30;;;4.50;92.40;;;;;;6210639;28;20042;-77
2023/11/28 10:54:46;;;;;;;1.67;1.58;;;4.50;92.40;;;;;;6214913;28;20674;-75
2023/11/28 10:57:59;;;;;;;1.83;1.55;;;4.50;92.40;;;;;;6214634;28;20038;-80
2023/11/28 11:01:02;;;;;;;2.05;1.90;;;4.50;92.40;;;;;;6215188;28;20503;-76
2023/11/28 11:04:06;;;;;;;1.70;1.60;;;4.50;92.40;;;;;;6216490;28;20057;-78
2023/11/28 11:07:08;;;;;;;3.53;1.58;;;4.40;92.30;;;;;;6213039;28;20057;-77
2023/11/28 11:10:10;;;;;;;1.65;1.55;;;4.50;92.40;;;;;;6211281;28;20124;-78
2023/11/28 11:13:26;;;;;;;1.77;1.60;;;4.40;92.30;;;;;;6217957;28;20132;-78
2023/11/28 11:16:33;;;;;;;14.35;3.88;;;4.50;92.40;;;;;;6214201;28;20046;-79
2023/11/28 11:19:37;;;;;;;2.20;2.00;;;4.40;92.30;;;;;;6216951;28;20053;-78
2023/11/28 11:22:45;;;;;;;1.60;1.42;;;4.40;92.30;;;;;;6214542;28;20038;-78
2023/11/28 11:25:52;;;;;;;1.80;1.70;;;4.40;92.30;;;;;;6214817;28;20434;-78
2023/11/28 11:28:57;;;;;;;2.70;2.05;;;4.40;92.30;;;;;;6217996;28;20057;-78
2023/11/28 11:32:00;;;;;;;1.92;1.52;;;4.40;92.20;;;;;;6213826;28;20042;-77
2023/11/28 11:35:04;;;;;;;2.38;2.25;;;4.30;92.20;;;;;;6212933;28;20044;-76
2023/11/28 11:38:27;;;;;;;1.75;1.65;;;4.30;92.20;;;;;;6213214;28;20041;-78
2023/11/28 11:41:28;;;;;;;1.95;1.70;;;4.30;92.30;;;;;;6212433;28;20046;-77
2023/11/28 11:44:30;;;;;;;2.75;1.85;;;4.30;92.30;;;;;;6214862;28;20053;-78
2023/11/28 11:47:33;;;;;;;2.88;1.92;;;4.40;92.30;;;;;;6214469;28;20057;-78
2023/11/28 11:50:36;;;;;;;1.92;1.80;;;4.40;92.40;;;;;;6213314;28;20056;-76
2023/11/28 11:53:39;;;;;;;2.05;1.90;;;4.50;92.40;;;;;;6213078;28;20046;-76
2023/11/28 11:56:41;;;;;;;2.58;2.38;;;4.60;92.70;;;;;;6212542;28;20046;-77
2023/11/28 11:59:43;;;;;;;2.85;2.55;;;4.50;92.20;;;;;;6211248;28;20054;-78
2023/11/28 12:02:45;;;;;;;2.55;1.80;;;4.50;92.20;;;;;;6212944;28;20518;-76
2023/11/28 12:05:52;;;;;;;10.30;8.18;;;4.50;92.20;;;;;;6218080;28;20042;-78
2023/11/28 12:08:59;;;;;;;2.33;2.13;;;4.60;92.30;;;;;;6213186;28;20042;-77
2023/11/28 12:12:02;;;;;;;2.22;1.92;;;4.50;92.20;;;;;;6214197;28;20077;-76
2023/11/28 12:15:05;;;;;;;4.30;2.35;;;4.50;92.20;;;;;;6208986;28;20057;-77
2023/11/28 12:18:10;;;;;;;2.38;2.17;;;4.40;92.50;;;;;;6212428;28;20050;-78
2023/11/28 12:21:13;;;;;;;3.50;1.88;;;4.50;92.20;;;;;;6212638;28;20038;-76
2023/11/28 12:24:15;;;;;;;2.55;2.35;;;4.50;92.20;;;;;;6209655;28;20050;-76
2023/11/28 12:27:16;;;;;;;2.35;2.15;;;4.50;92.30;;;;;;6211922;28;20042;-77
2023/11/28 12:30:18;;;;;;;2.70;2.50;;;4.50;92.30;;;;;;6208880;28;20158;-77
2023/11/28 12:33:20;;;;;;;10.57;5.97;;;4.60;92.30;;;;;;6200318;28;20058;-78
2023/11/28 12:36:25;;;;;;;13.93;6.82;;;4.60;92.30;;;;;;6216016;28;20107;-77
2023/11/28 12:39:28;;;;;;;2.40;2.20;;;4.60;92.30;;;;;;6221552;28;20067;-77
2023/11/28 12:42:30;;;;;;;5.45;2.80;;;4.60;92.20;;;;;;6206437;28;20519;-79
2023/11/28 12:45:33;;;;;;;4.18;3.47;;;4.50;92.20;;;;;;6208367;28;20054;-78
2023/11/28 12:48:34;;;;;;;3.28;2.97;;;4.60;92.30;;;;;;6205462;28;20057;-77
2023/11/28 12:51:38;;;;;;;4.55;3.60;;;4.60;92.20;;;;;;6208910;28;20044;-77
2023/11/28 12:54:42;;;;;;;4.07;3.67;;;4.60;92.20;;;;;;6209168;28;20045;-80
2023/11/28 12:57:43;;;;;;;4.00;3.13;;;4.60;92.10;;;;;;6206553;28;20050;-77
2023/11/28 13:00:45;;;;;;;4.45;3.83;;;4.50;91.90;;;;;;6197498;28;20058;-78
2023/11/28 13:03:48;;;;;;;9.70;8.20;;;4.30;91.70;;;;;;6188115;28;20147;-78
2023/11/28 13:06:52;;;;;;;6.75;6.05;;;4.10;91.70;;;;;;6199848;28;20420;-77
2023/11/28 13:09:54;;;;;;;3.00;2.78;;;4.10;91.90;;;;;;6207723;28;20129;-77
2023/11/28 13:12:55;;;;;;;3.33;2.95;;;4.00;92.30;;;;;;6206500;28;20050;-78
2023/11/28 13:15:57;;;;;;;3.65;3.35;;;4.00;92.00;;;;;;6210630;28;20050;-78
2023/11/28 13:19:00;;;;;;;4.10;3.63;;;4.00;92.10;;;;;;6206258;28;20034;-79
2023/11/28 13:22:04;;;;;;;3.53;3.15;;;4.00;92.20;;;;;;6205682;28;20329;-78
2023/11/28 13:25:06;;;;;;;3.90;3.63;;;4.00;92.30;;;;;;6205631;28;20117;-78
2023/11/28 13:28:08;;;;;;;4.22;3.85;;;4.00;92.30;;;;;;6210422;28;20518;-76
2023/11/28 13:31:11;;;;;;;4.78;4.38;;;4.00;92.30;;;;;;6205242;28;20702;-77
2023/11/28 13:34:12;;;;;;;4.07;3.78;;;4.10;92.40;;;;;;6200353;28;20053;-77
2023/11/28 13:37:17;;;;;;;4.75;4.20;;;4.10;92.40;;;;;;6207485;28;20168;-77
2023/11/28 13:40:19;;;;;;;4.03;3.63;;;4.10;92.30;;;;;;6204326;28;20091;-77
2023/11/28 13:43:21;;;;;;;4.32;3.90;;;4.10;92.40;;;;;;6203628;28;20200;-80
2023/11/28 13:46:24;;;;;;;3.92;3.63;;;4.10;92.30;;;;;;6206362;28;20046;-79
2023/11/28 13:49:25;;;;;;;4.57;4.18;;;4.10;92.30;;;;;;6205109;28;20041;-78
2023/11/28 13:52:29;;;;;;;4.15;3.60;;;4.10;92.30;;;;;;6207666;28;20042;-77
2023/11/28 13:55:31;;;;;;;9.27;8.27;;;4.10;92.30;;;;;;6210335;28;20041;-78
2023/11/28 13:58:32;;;;;;;25.77;18.27;;;4.10;92.30;;;;;;6211111;28;20061;-79
2023/11/28 14:01:34;;;;;;;26.38;14.82;;;4.20;92.30;;;;;;6210332;28;20045;-79
2023/11/28 14:04:36;;;;;;;101.13;48.65;;;4.20;92.30;;;;;;6206425;28;20057;-79
2023/11/28 14:07:39;;;;;;;50.92;30.52;;;4.20;92.30;;;;;;6210188;28;20054;-80
2023/11/28 14:10:41;;;;;;;48.60;31.63;;;4.20;92.30;;;;;;6205426;28;20064;-78
2023/11/28 14:13:43;;;;;;;21.27;18.48;;;4.10;92.20;;;;;;6206691;28;20046;-80
2023/11/28 14:16:44;;;;;;;22.58;20.17;;;4.20;92.30;;;;;;6208406;28;20057;-79
2023/11/28 14:19:46;;;;;;;23.48;20.45;;;4.20;92.30;;;;;;6209611;28;20058;-79
2023/11/28 14:22:49;;;;;;;15.15;13.70;;;4.20;92.30;;;;;;6208920;28;20049;-78
2023/11/28 14:25:51;;;;;;;26.38;23.65;;;4.20;92.30;;;;;;6207708;28;20518;-77
2023/11/28 14:28:53;;;;;;;29.33;24.08;;;4.20;92.30;;;;;;6210631;28;20049;-78
2023/11/28 14:31:54;;;;;;;41.35;31.50;;;4.20;92.30;;;;;;6211665;28;20052;-80
2023/11/28 14:34:57;;;;;;;36.40;26.10;;;4.20;92.60;;;;;;6211308;28;20046;-77
2023/11/28 14:38:01;;;;;;;44.60;29.92;;;4.20;92.20;;;;;;6209914;28;20515;-79
2023/11/28 14:41:03;;;;;;;150.23;86.70;;;4.20;92.20;;;;;;6210785;28;20046;-79
2023/11/28 14:44:08;;;;;;;35.45;25.38;;;4.20;92.20;;;;;;6212534;28;20060;-79
2023/11/28 14:47:10;;;;;;;116.25;78.15;;;4.20;92.20;;;;;;6211078;28;20108;-79
2023/11/28 14:50:12;;;;;;;36.22;32.42;;;4.10;92.10;;;;;;6211946;28;20046;-80
2023/11/28 14:53:15;;;;;;;32.83;29.27;;;4.10;92.10;;;;;;6209117;28;20046;-78
2023/11/28 14:56:16;;;;;;;54.90;32.92;;;4.10;92.10;;;;;;6209450;28;20415;-78
2023/11/28 14:59:18;;;;;;;30.08;20.90;;;4.10;92.10;;;;;;6201160;28;20093;-78
2023/11/28 15:02:20;;;;;;;14.07;10.70;;;4.10;92.20;;;;;;6214108;28;20042;-79
2023/11/28 15:05:22;;;;;;;10.73;8.82;;;4.10;92.10;;;;;;6221290;28;20073;-78
2023/11/28 15:08:25;;;;;;;7.43;6.70;;;4.10;92.10;;;;;;6225953;28;20049;-78
2023/11/28 15:11:36;;;;;;;7.85;6.60;;;4.10;92.10;;;;;;6199988;28;20054;-77
2023/11/28 15:14:38;;;;;;;7.55;6.75;;;4.10;92.10;;;;;;6188220;28;20050;-79
2023/11/28 15:17:40;;;;;;;7.55;6.85;;;4.00;92.00;;;;;;6188590;28;20045;-79
2023/11/28 15:20:42;;;;;;;9.55;7.90;;;4.00;92.00;;;;;;6187320;28;20073;-79
2023/11/28 15:23:47;;;;;;;9.15;8.25;;;4.00;92.00;;;;;;6211599;28;20561;-78
2023/11/28 15:26:48;;;;;;;11.15;10.05;;;4.00;92.00;;;;;;6211728;28;20046;-78
2023/11/28 15:29:51;;;;;;;11.98;9.35;;;4.00;92.00;;;;;;6200146;28;20058;-79
2023/11/28 15:32:54;;;;;;;12.27;9.50;;;4.00;92.10;;;;;;6185082;28;20050;-78
2023/11/28 15:35:56;;;;;;;10.85;9.75;;;4.00;92.00;;;;;;6184164;28;20049;-78
2023/11/28 15:38:59;;;;;;;10.30;8.40;;;4.00;92.00;;;;;;6186383;28;20042;-79
2023/11/28 15:42:01;;;;;;;9.68;8.70;;;4.00;92.00;;;;;;6202699;28;20046;-78
2023/11/28 15:45:02;;;;;;;17.50;14.93;;;4.00;92.00;;;;;;6215164;28;20081;-79
2023/11/28 15:48:04;;;;;;;12.27;11.15;;;3.90;92.00;;;;;;6215378;28;20642;-78
2023/11/28 15:51:06;;;;;;;12.73;11.00;;;3.90;92.10;;;;;;6198968;28;20049;-79
2023/11/28 15:54:09;;;;;;;10.98;9.85;;;3.90;92.10;;;;;;6199123;28;20050;-79
2023/11/28 15:57:11;;;;;;;11.18;9.73;;;3.90;92.10;;;;;;6198150;28;20042;-79
2023/11/28 16:00:13;;;;;;;12.02;8.30;;;3.90;92.10;;;;;;6202608;28;20055;-79
2023/11/28 16:03:15;;;;;;;10.13;8.85;;;3.90;92.10;;;;;;6193565;28;20526;-80